createdAt,value
2022-10-27T00:01:05.998Z,14.60
2022-10-27T00:04:07.816Z,14.53
2022-10-27T00:07:09.209Z,14.44
2022-10-27T00:10:10.634Z,14.43
2022-10-27T00:13:13.700Z,14.38
2022-10-27T00:16:16.013Z,14.34
2022-10-27T00:19:17.392Z,14.31
2022-10-27T00:22:18.800Z,14.34
2022-10-27T00:25:20.275Z,14.35
2022-10-27T00:28:22.647Z,14.35
2022-10-27T00:31:24.064Z,14.35
2022-10-27T00:34:25.514Z,14.25
2022-10-27T00:37:28.274Z,14.21
2022-10-27T00:40:35.390Z,14.24
2022-10-27T00:43:39.498Z,14.14
2022-10-27T00:46:45.837Z,14.08
2022-10-27T00:49:51.442Z,14.04
2022-10-27T00:52:59.819Z,13.99
2022-10-27T00:56:02.345Z,13.97
2022-10-27T00:59:04.418Z,13.93
2022-10-27T01:02:08.805Z,13.89
2022-10-27T01:05:20.907Z,13.90
2022-10-27T01:08:23.932Z,13.90
2022-10-27T01:11:25.423Z,13.91
2022-10-27T01:14:27.640Z,13.93
2022-10-27T01:17:41.722Z,13.93
2022-10-27T01:20:50.577Z,13.93
2022-10-27T01:24:22.765Z,13.87
2022-10-27T01:27:51.902Z,13.89
2022-10-27T01:31:03.642Z,13.93
2022-10-27T01:34:16.960Z,13.97
2022-10-27T01:37:24.191Z,13.99
2022-10-27T01:40:32.292Z,14.01
2022-10-27T01:43:35.473Z,14.00
2022-10-27T01:46:37.048Z,14.00
2022-10-27T01:49:40.862Z,13.99
2022-10-27T01:52:50.296Z,13.96
2022-10-27T01:56:04.360Z,13.92
2022-10-27T01:59:28.413Z,13.91
2022-10-27T02:02:38.292Z,13.92
2022-10-27T02:06:02.815Z,13.95
2022-10-27T02:09:10.717Z,13.96
2022-10-27T02:12:25.651Z,13.94
2022-10-27T02:15:33.605Z,13.90
2022-10-27T02:18:59.064Z,13.90
2022-10-27T02:22:02.119Z,13.91
2022-10-27T02:25:04.919Z,13.93
2022-10-27T02:28:08.741Z,13.94
2022-10-27T02:31:12.582Z,13.96
2022-10-27T02:34:16.466Z,14.01
2022-10-27T02:37:27.233Z,14.02
2022-10-27T02:40:28.742Z,14.00
2022-10-27T02:43:30.218Z,13.99
2022-10-27T02:46:31.697Z,13.93
2022-10-27T02:49:33.202Z,13.91
2022-10-27T02:52:34.625Z,13.89
2022-10-27T02:55:36.007Z,13.88
2022-10-27T02:58:37.393Z,13.87
2022-10-27T03:01:39.028Z,13.82
2022-10-27T03:04:40.559Z,13.75
2022-10-27T03:07:43.686Z,13.72
2022-10-27T03:10:45.593Z,13.67
2022-10-27T03:13:46.988Z,13.68
2022-10-27T03:16:48.486Z,13.65
2022-10-27T03:19:49.986Z,13.62
2022-10-27T03:22:51.844Z,13.57
2022-10-27T03:25:56.676Z,13.56
2022-10-27T03:29:00.631Z,13.54
2022-10-27T03:32:02.095Z,13.48
2022-10-27T03:35:03.694Z,13.46
2022-10-27T03:38:05.087Z,13.40
2022-10-27T03:41:06.766Z,13.41
2022-10-27T03:44:08.172Z,13.47
2022-10-27T03:47:10.356Z,13.45
2022-10-27T03:50:11.783Z,13.46
2022-10-27T03:53:13.701Z,13.53
2022-10-27T03:56:15.170Z,13.50
2022-10-27T04:02:22.954Z,13.46
2022-10-27T04:05:24.898Z,13.39
2022-10-27T04:08:26.299Z,13.39
2022-10-27T04:11:27.712Z,13.34
2022-10-27T04:14:29.158Z,13.28
2022-10-27T04:17:30.631Z,13.20
2022-10-27T04:20:32.421Z,13.17
2022-10-27T04:23:33.846Z,13.20
2022-10-27T04:26:35.309Z,13.23
2022-10-27T04:29:36.784Z,13.26
2022-10-27T04:32:38.278Z,13.31
2022-10-27T04:35:39.712Z,13.37
2022-10-27T04:38:41.799Z,13.40
2022-10-27T04:41:43.233Z,13.46
2022-10-27T04:44:44.667Z,13.49
2022-10-27T04:47:46.190Z,13.56
2022-10-27T04:50:47.577Z,13.62
2022-10-27T04:53:49.117Z,13.72
2022-10-27T04:56:50.901Z,13.72
2022-10-27T04:59:52.272Z,13.73
2022-10-27T05:02:58.621Z,13.74
2022-10-27T05:06:00.437Z,13.69
2022-10-27T05:09:01.910Z,13.67
2022-10-27T05:12:03.654Z,13.65
2022-10-27T05:15:05.654Z,13.62
2022-10-27T05:18:09.489Z,13.61
2022-10-27T05:21:11.984Z,13.63
2022-10-27T05:24:13.387Z,13.63
2022-10-27T05:27:14.790Z,13.62
2022-10-27T05:30:16.234Z,13.59
2022-10-27T05:33:17.620Z,13.61
2022-10-27T05:36:19.102Z,13.59
2022-10-27T05:39:20.489Z,13.55
2022-10-27T05:42:21.897Z,13.52
2022-10-27T05:45:24.047Z,13.50
2022-10-27T05:48:25.466Z,13.46
2022-10-27T05:51:27.003Z,13.46
2022-10-27T05:54:28.534Z,13.46
2022-10-27T05:57:29.925Z,13.46
2022-10-27T06:00:34.753Z,13.44
2022-10-27T06:03:36.207Z,13.52
2022-10-27T06:06:37.680Z,13.49
2022-10-27T06:09:39.107Z,13.52
2022-10-27T06:12:40.580Z,13.52
2022-10-27T06:18:48.776Z,13.50
2022-10-27T06:21:50.192Z,13.55
2022-10-27T06:24:51.923Z,13.57
2022-10-27T06:27:53.766Z,13.65
2022-10-27T06:30:55.403Z,13.65
2022-10-27T06:33:56.920Z,13.65
2022-10-27T06:36:58.330Z,13.70
2022-10-27T06:40:00.987Z,13.79
2022-10-27T06:43:06.800Z,13.83
2022-10-27T06:46:09.289Z,13.93
2022-10-27T06:49:13.133Z,14.06
2022-10-27T06:52:16.872Z,14.14
2022-10-27T06:55:18.889Z,14.22
2022-10-27T06:58:20.280Z,14.26
2022-10-27T07:01:21.940Z,14.30
2022-10-27T07:04:23.379Z,14.40
2022-10-27T07:07:24.866Z,14.43
2022-10-27T07:10:26.342Z,14.55
2022-10-27T07:13:27.789Z,14.57
2022-10-27T07:16:32.807Z,14.61
2022-10-27T07:19:36.296Z,14.68
2022-10-27T07:22:40.590Z,14.78
2022-10-27T07:25:42.032Z,14.84
2022-10-27T07:28:43.495Z,14.88
2022-10-27T07:31:45.968Z,14.88
2022-10-27T07:34:47.458Z,14.94
2022-10-27T07:37:49.216Z,15.01
2022-10-27T07:40:50.854Z,15.03
2022-10-27T07:43:52.252Z,15.08
2022-10-27T07:46:53.692Z,15.17
2022-10-27T07:49:55.086Z,15.23
2022-10-27T07:52:57.114Z,15.34
2022-10-27T07:55:58.790Z,15.43
2022-10-27T07:59:00.376Z,15.60
2022-10-27T08:02:01.929Z,15.67
2022-10-27T08:05:03.662Z,15.76
2022-10-27T08:08:06.624Z,15.86
2022-10-27T08:11:08.112Z,15.94
2022-10-27T08:14:10.165Z,16.01
2022-10-27T08:17:13.462Z,16.06
2022-10-27T08:20:15.056Z,16.11
2022-10-27T08:23:18.589Z,16.20
2022-10-27T08:26:20.037Z,16.30
2022-10-27T08:29:21.450Z,16.43
2022-10-27T08:32:22.887Z,16.50
2022-10-27T08:35:25.526Z,16.62
2022-10-27T08:38:29.270Z,16.68
2022-10-27T08:41:39.656Z,16.76
2022-10-27T08:44:57.181Z,16.74
2022-10-27T08:48:00.321Z,16.78
2022-10-27T08:51:01.882Z,16.82
2022-10-27T08:54:05.909Z,16.78
2022-10-27T08:57:13.398Z,16.79
2022-10-27T09:00:15.191Z,16.79
2022-10-27T09:03:45.493Z,16.89
2022-10-27T09:07:09.956Z,16.94
2022-10-27T09:10:49.885Z,17.07
2022-10-27T09:14:28.962Z,17.24
2022-10-27T09:17:42.861Z,17.37
2022-10-27T09:20:55.114Z,17.35
2022-10-27T09:24:02.055Z,17.39
2022-10-27T09:27:04.865Z,17.46
2022-10-27T09:30:10.697Z,17.54
2022-10-27T09:33:19.489Z,17.64
2022-10-27T09:36:23.358Z,17.79
2022-10-27T09:39:24.943Z,17.97
2022-10-27T09:42:28.277Z,18.18
2022-10-27T09:45:29.668Z,18.18
2022-10-27T09:48:31.494Z,18.37
2022-10-27T09:51:51.808Z,18.48
2022-10-27T09:54:55.941Z,18.63
2022-10-27T09:58:02.246Z,18.74
2022-10-27T10:01:05.333Z,18.75
2022-10-27T10:04:17.360Z,18.85
2022-10-27T10:07:39.532Z,18.99
2022-10-27T10:10:54.588Z,19.02
2022-10-27T10:14:01.122Z,19.21
2022-10-27T10:17:02.560Z,19.26
2022-10-27T10:20:06.184Z,19.25
2022-10-27T10:23:24.038Z,19.31
2022-10-27T10:26:28.918Z,19.28
2022-10-27T10:29:50.707Z,19.55
2022-10-27T10:32:55.840Z,19.65
2022-10-27T10:35:58.298Z,19.65
2022-10-27T10:39:00.868Z,19.62
2022-10-27T10:42:18.400Z,19.60
2022-10-27T10:45:30.268Z,19.56
2022-10-27T10:48:39.966Z,19.65
2022-10-27T10:51:41.371Z,19.79
2022-10-27T10:54:44.712Z,19.72
2022-10-27T10:57:48.097Z,19.72
2022-10-27T11:00:56.000Z,19.94
2022-10-27T11:03:57.510Z,20.05
2022-10-27T11:07:07.664Z,20.19
2022-10-27T11:10:23.966Z,20.41
2022-10-27T11:16:51.939Z,20.33
2022-10-27T11:19:57.314Z,20.37
2022-10-27T11:23:00.838Z,20.56
2022-10-27T11:26:03.428Z,20.67
2022-10-27T11:29:17.921Z,20.55
2022-10-27T11:32:44.881Z,20.65
2022-10-27T11:36:10.270Z,20.71
2022-10-27T11:39:30.081Z,20.79
2022-10-27T11:42:41.414Z,20.77
2022-10-27T11:45:48.252Z,20.82
2022-10-27T11:49:10.069Z,20.79
2022-10-27T11:52:17.222Z,20.85
2022-10-27T11:55:22.140Z,20.93
2022-10-27T11:58:37.582Z,20.86
2022-10-27T12:01:46.498Z,20.84
2022-10-27T12:04:57.154Z,20.95
2022-10-27T12:08:08.952Z,21.00
2022-10-27T12:11:29.558Z,21.15
2022-10-27T12:14:51.590Z,21.37
2022-10-27T12:18:09.180Z,21.37
2022-10-27T12:21:25.147Z,21.21
2022-10-27T12:24:38.470Z,21.21
2022-10-27T12:27:44.637Z,21.36
2022-10-27T12:30:47.850Z,21.33
2022-10-27T12:33:55.424Z,21.39
2022-10-27T12:37:15.588Z,21.54
2022-10-27T12:40:35.213Z,21.66
2022-10-27T12:44:02.036Z,21.67
2022-10-27T12:47:24.829Z,21.52
2022-10-27T12:50:57.272Z,21.47
2022-10-27T12:54:05.358Z,21.57
2022-10-27T12:57:18.062Z,21.47
2022-10-27T13:03:45.934Z,21.66
2022-10-27T13:07:13.227Z,21.65
2022-10-27T13:10:31.605Z,21.62
2022-10-27T13:13:52.051Z,21.69
2022-10-27T13:20:44.121Z,21.58
2022-10-27T13:23:56.886Z,21.62
2022-10-27T13:27:14.067Z,21.68
2022-10-27T13:30:20.250Z,21.73
2022-10-27T13:33:36.532Z,21.80
2022-10-27T13:36:38.455Z,21.93
2022-10-27T13:39:45.729Z,22.08
2022-10-27T13:42:49.782Z,22.18
2022-10-27T13:45:55.885Z,22.24
2022-10-27T13:48:57.278Z,22.33
2022-10-27T13:52:15.003Z,22.44
2022-10-27T13:55:28.628Z,22.54
2022-10-27T13:58:51.478Z,22.62
2022-10-27T14:01:59.570Z,22.66
2022-10-27T14:05:04.293Z,22.70
2022-10-27T14:08:21.489Z,22.60
2022-10-27T14:11:27.319Z,22.53
2022-10-27T14:14:33.536Z,22.49
2022-10-27T14:17:34.989Z,22.45
2022-10-27T14:20:38.370Z,22.34
2022-10-27T14:23:40.445Z,22.24
2022-10-27T14:26:41.846Z,22.16
2022-10-27T14:29:43.684Z,22.08
2022-10-27T14:32:45.163Z,22.08
2022-10-27T14:35:46.684Z,22.08
2022-10-27T14:38:54.615Z,22.08
2022-10-27T14:42:04.568Z,22.04
2022-10-27T14:45:13.172Z,21.99
2022-10-27T14:48:27.292Z,21.95
2022-10-27T14:51:33.494Z,21.85
2022-10-27T14:54:36.044Z,21.74
2022-10-27T14:57:37.496Z,21.65
2022-10-27T15:00:38.886Z,21.54
2022-10-27T15:06:45.194Z,21.45
2022-10-27T15:09:52.729Z,21.38
2022-10-27T15:12:59.288Z,21.28
2022-10-27T15:16:06.956Z,21.19
2022-10-27T15:19:14.701Z,21.14
2022-10-27T15:22:17.937Z,21.06
2022-10-27T15:25:21.474Z,21.03
2022-10-27T15:28:30.988Z,21.08
2022-10-27T15:31:39.869Z,21.11
2022-10-27T15:34:41.325Z,21.18
2022-10-27T15:37:42.704Z,21.23
2022-10-27T15:40:45.246Z,21.27
2022-10-27T15:44:03.244Z,21.23
2022-10-27T15:47:37.281Z,21.19
2022-10-27T15:50:41.711Z,21.19
2022-10-27T15:53:52.499Z,21.16
2022-10-27T15:56:55.045Z,21.09
2022-10-27T16:00:17.854Z,21.03
2022-10-27T16:03:34.245Z,20.97
2022-10-27T16:06:36.218Z,20.90
2022-10-27T16:09:42.722Z,20.85
2022-10-27T16:12:44.574Z,20.75
2022-10-27T16:15:50.248Z,20.67
2022-10-27T16:18:52.435Z,20.58
2022-10-27T16:21:54.832Z,20.54
2022-10-27T16:24:56.576Z,20.47
2022-10-27T16:27:59.954Z,20.35
2022-10-27T16:31:01.366Z,20.25
2022-10-27T16:34:03.527Z,20.18
2022-10-27T16:37:30.178Z,20.08
2022-10-27T16:40:33.380Z,19.98
2022-10-27T16:43:37.757Z,19.86
2022-10-27T16:46:39.950Z,19.78
2022-10-27T16:49:41.500Z,19.72
2022-10-27T16:52:43.131Z,19.63
2022-10-27T16:55:44.537Z,19.51
2022-10-27T16:58:46.315Z,19.46
2022-10-27T17:01:49.949Z,19.42
2022-10-27T17:04:51.417Z,19.34
2022-10-27T17:07:53.209Z,19.27
2022-10-27T17:10:55.450Z,19.26
2022-10-27T17:13:57.037Z,19.20
2022-10-27T17:16:58.422Z,19.14
2022-10-27T17:19:59.815Z,19.03
2022-10-27T17:23:04.881Z,18.92
2022-10-27T17:26:09.984Z,18.87
2022-10-27T17:29:11.362Z,18.85
2022-10-27T17:32:12.765Z,18.86
2022-10-27T17:35:17.566Z,18.78
2022-10-27T17:38:18.959Z,18.72
2022-10-27T17:41:20.828Z,18.76
2022-10-27T17:44:22.334Z,18.76
2022-10-27T17:47:23.725Z,18.70
2022-10-27T17:50:25.124Z,18.63
2022-10-27T17:53:26.664Z,18.52
2022-10-27T17:56:36.151Z,18.48
2022-10-27T17:59:37.672Z,18.44
2022-10-27T18:02:39.349Z,18.49
2022-10-27T18:05:40.818Z,18.44
2022-10-27T18:08:42.621Z,18.41
2022-10-27T18:11:44.811Z,18.41
2022-10-27T18:14:46.198Z,18.41
2022-10-27T18:17:49.685Z,18.42
2022-10-27T18:20:51.110Z,18.44
2022-10-27T18:23:58.810Z,18.44
2022-10-27T18:27:00.196Z,18.43
2022-10-27T18:30:02.216Z,18.47
2022-10-27T18:33:03.624Z,18.44
2022-10-27T18:36:07.654Z,18.44
2022-10-27T18:39:16.813Z,18.34
2022-10-27T18:42:18.243Z,18.31
2022-10-27T18:45:19.620Z,18.30
2022-10-27T18:48:21.030Z,18.32
2022-10-27T18:51:23.154Z,18.31
2022-10-27T18:54:24.553Z,18.32
2022-10-27T18:57:25.962Z,18.34
2022-10-27T19:00:27.406Z,18.30
2022-10-27T19:03:28.812Z,18.29
2022-10-27T19:06:32.454Z,18.26
2022-10-27T19:09:33.938Z,18.18
2022-10-27T19:12:35.326Z,18.16
2022-10-27T19:15:36.816Z,18.13
2022-10-27T19:18:38.549Z,18.07
2022-10-27T19:21:39.965Z,17.97
2022-10-27T19:24:41.361Z,17.96
2022-10-27T19:27:42.804Z,17.93
2022-10-27T19:30:52.828Z,17.86
2022-10-27T19:33:56.380Z,17.72
2022-10-27T19:36:57.845Z,17.65
2022-10-27T19:39:59.233Z,17.59
2022-10-27T19:43:00.622Z,17.62
2022-10-27T19:46:02.056Z,17.58
2022-10-27T19:49:08.288Z,17.55
2022-10-27T19:52:09.756Z,17.54
2022-10-27T19:55:11.346Z,17.56
2022-10-27T19:58:12.757Z,17.54
2022-10-27T20:01:50.549Z,17.47
2022-10-27T20:04:53.525Z,17.37
2022-10-27T20:07:55.032Z,17.27
2022-10-27T20:10:56.421Z,17.23
2022-10-27T20:13:58.696Z,17.20
2022-10-27T20:17:00.136Z,17.15
2022-10-27T20:20:01.619Z,17.06
2022-10-27T20:23:03.301Z,17.08
2022-10-27T20:26:28.000Z,17.07
2022-10-27T20:29:30.626Z,17.02
2022-10-27T20:32:33.920Z,16.98
2022-10-27T20:35:35.324Z,17.03
2022-10-27T20:38:37.767Z,16.96
2022-10-27T20:41:39.212Z,16.92
2022-10-27T20:44:41.190Z,16.84
2022-10-27T20:47:43.257Z,16.78
2022-10-27T20:50:54.458Z,16.75
2022-10-27T20:53:55.992Z,16.72
2022-10-27T20:56:57.449Z,16.75
2022-10-27T20:59:58.839Z,16.76
2022-10-27T21:03:00.255Z,16.77
2022-10-27T21:06:01.911Z,16.77
2022-10-27T21:09:06.485Z,16.76
2022-10-27T21:12:08.302Z,16.82
2022-10-27T21:15:10.066Z,16.77
2022-10-27T21:18:11.455Z,16.74
2022-10-27T21:21:14.484Z,16.78
2022-10-27T21:24:17.374Z,16.75
2022-10-27T21:27:20.078Z,16.70
2022-10-27T21:30:22.509Z,16.67
2022-10-27T21:33:27.469Z,16.70
2022-10-27T21:36:28.991Z,16.65
2022-10-27T21:39:30.433Z,16.67
2022-10-27T21:42:31.864Z,16.61
2022-10-27T21:45:33.246Z,16.62
2022-10-27T21:48:34.771Z,16.54
2022-10-27T21:51:36.241Z,16.53
2022-10-27T21:54:37.621Z,16.54
2022-10-27T21:57:39.135Z,16.60
2022-10-27T22:00:40.541Z,16.56
2022-10-27T22:03:43.360Z,16.55
2022-10-27T22:06:44.848Z,16.55
2022-10-27T22:09:46.278Z,16.55
2022-10-27T22:12:47.743Z,16.52
2022-10-27T22:15:49.158Z,16.51
2022-10-27T22:18:58.335Z,16.50
2022-10-27T22:21:59.885Z,16.56
2022-10-27T22:25:01.364Z,16.58
2022-10-27T22:28:02.783Z,16.61
2022-10-27T22:31:26.287Z,16.60
2022-10-27T22:34:27.724Z,16.63
2022-10-27T22:37:29.201Z,16.63
2022-10-27T22:40:30.698Z,16.61
2022-10-27T22:43:32.355Z,16.59
2022-10-27T22:46:34.580Z,16.62
2022-10-27T22:49:36.777Z,16.58
2022-10-27T22:52:38.308Z,16.56
2022-10-27T22:55:39.776Z,16.62
2022-10-27T22:58:41.750Z,16.59
2022-10-27T23:01:43.878Z,16.59
2022-10-27T23:04:45.392Z,16.59
2022-10-27T23:07:46.760Z,16.58
2022-10-27T23:10:55.777Z,16.58
2022-10-27T23:13:57.281Z,16.58
2022-10-27T23:16:59.142Z,16.53
2022-10-27T23:20:01.574Z,16.51
2022-10-27T23:23:04.607Z,16.49
2022-10-27T23:26:06.401Z,16.51
2022-10-27T23:29:11.599Z,16.46
2022-10-27T23:32:12.978Z,16.40
2022-10-27T23:35:14.642Z,16.41
2022-10-27T23:38:16.047Z,16.46
2022-10-27T23:41:19.038Z,16.44
2022-10-27T23:44:20.472Z,16.49
2022-10-27T23:47:21.903Z,16.48
2022-10-27T23:50:23.278Z,16.47
2022-10-27T23:53:25.730Z,16.50
2022-10-27T23:56:27.255Z,16.44
2022-10-27T23:59:28.636Z,16.46
